sensor_id;sensor_type;location;lat;lon;timestamp;pressure;altitude;pressure_sealevel;temperature
16956;BMP180;8594;52.052;8.354;2024-03-29T00:01:54;98495.00;;;11.60
16956;BMP180;8594;52.052;8.354;2024-03-29T00:04:20;98495.00;;;11.60
16956;BMP180;8594;52.052;8.354;2024-03-29T00:06:46;98484.00;;;11.80
16956;BMP180;8594;52.052;8.354;2024-03-29T00:09:11;98487.00;;;11.90
16956;BMP180;8594;52.052;8.354;2024-03-29T00:11:37;98484.00;;;11.70
16956;BMP180;8594;52.052;8.354;2024-03-29T00:14:03;98477.00;;;12.00
16956;BMP180;8594;52.052;8.354;2024-03-29T00:16:31;98475.00;;;12.00
16956;BMP180;8594;52.052;8.354;2024-03-29T00:18:56;98477.00;;;11.80
16956;BMP180;8594;52.052;8.354;2024-03-29T00:21:22;98463.00;;;11.60
16956;BMP180;8594;52.052;8.354;2024-03-29T00:23:48;98475.00;;;11.50
16956;BMP180;8594;52.052;8.354;2024-03-29T00:26:14;98464.00;;;11.80
16956;BMP180;8594;52.052;8.354;2024-03-29T00:28:40;98474.00;;;11.80
16956;BMP180;8594;52.052;8.354;2024-03-29T00:31:07;98471.00;;;11.90
16956;BMP180;8594;52.052;8.354;2024-03-29T00:33:34;98474.00;;;12.10
16956;BMP180;8594;52.052;8.354;2024-03-29T00:36:00;98470.00;;;11.80
16956;BMP180;8594;52.052;8.354;2024-03-29T00:38:26;98467.00;;;11.80
16956;BMP180;8594;52.052;8.354;2024-03-29T00:40:52;98476.00;;;11.80
16956;BMP180;8594;52.052;8.354;2024-03-29T00:43:18;98467.00;;;11.40
16956;BMP180;8594;52.052;8.354;2024-03-29T00:45:44;98473.00;;;11.10
16956;BMP180;8594;52.052;8.354;2024-03-29T00:48:10;98479.00;;;10.90
16956;BMP180;8594;52.052;8.354;2024-03-29T00:50:37;98475.00;;;11.10
16956;BMP180;8594;52.052;8.354;2024-03-29T00:53:04;98466.00;;;11.40
16956;BMP180;8594;52.052;8.354;2024-03-29T00:55:30;98468.00;;;11.60
16956;BMP180;8594;52.052;8.354;2024-03-29T00:57:56;98458.00;;;11.20
16956;BMP180;8594;52.052;8.354;2024-03-29T01:00:22;98463.00;;;11.50
16956;BMP180;8594;52.052;8.354;2024-03-29T01:02:47;98463.00;;;11.50
16956;BMP180;8594;52.052;8.354;2024-03-29T01:05:13;98460.00;;;11.60
16956;BMP180;8594;52.052;8.354;2024-03-29T01:07:42;98462.00;;;11.70
16956;BMP180;8594;52.052;8.354;2024-03-29T01:10:09;98462.00;;;11.30
16956;BMP180;8594;52.052;8.354;2024-03-29T01:12:35;98457.00;;;11.60
16956;BMP180;8594;52.052;8.354;2024-03-29T01:15:00;98460.00;;;11.30
16956;BMP180;8594;52.052;8.354;2024-03-29T01:17:26;98454.00;;;11.20
16956;BMP180;8594;52.052;8.354;2024-03-29T01:19:52;98477.00;;;11.30
16956;BMP180;8594;52.052;8.354;2024-03-29T01:22:18;98478.00;;;11.30
16956;BMP180;8594;52.052;8.354;2024-03-29T01:24:45;98484.00;;;11.10
16956;BMP180;8594;52.052;8.354;2024-03-29T01:27:11;98499.00;;;11.30
16956;BMP180;8594;52.052;8.354;2024-03-29T01:29:37;98487.00;;;11.00
16956;BMP180;8594;52.052;8.354;2024-03-29T01:32:04;98479.00;;;11.20
16956;BMP180;8594;52.052;8.354;2024-03-29T01:34:30;98490.00;;;11.10
16956;BMP180;8594;52.052;8.354;2024-03-29T01:36:56;98497.00;;;11.30
16956;BMP180;8594;52.052;8.354;2024-03-29T01:39:22;98500.00;;;11.30
16956;BMP180;8594;52.052;8.354;2024-03-29T01:41:49;98493.00;;;11.30
16956;BMP180;8594;52.052;8.354;2024-03-29T01:44:15;98498.00;;;11.30
16956;BMP180;8594;52.052;8.354;2024-03-29T01:46:42;98489.00;;;11.50
16956;BMP180;8594;52.052;8.354;2024-03-29T01:49:11;98491.00;;;11.50
16956;BMP180;8594;52.052;8.354;2024-03-29T01:51:39;98495.00;;;11.40
16956;BMP180;8594;52.052;8.354;2024-03-29T01:54:08;98491.00;;;11.30
16956;BMP180;8594;52.052;8.354;2024-03-29T01:56:36;98495.00;;;10.90
16956;BMP180;8594;52.052;8.354;2024-03-29T01:59:12;98486.00;;;11.30
16956;BMP180;8594;52.052;8.354;2024-03-29T02:01:41;98486.00;;;11.20
16956;BMP180;8594;52.052;8.354;2024-03-29T02:04:08;98482.00;;;11.10
16956;BMP180;8594;52.052;8.354;2024-03-29T02:06:36;98473.00;;;10.90
16956;BMP180;8594;52.052;8.354;2024-03-29T02:09:04;98466.00;;;11.30
16956;BMP180;8594;52.052;8.354;2024-03-29T02:11:31;98469.00;;;11.20
16956;BMP180;8594;52.052;8.354;2024-03-29T02:13:58;98462.00;;;11.10
16956;BMP180;8594;52.052;8.354;2024-03-29T02:16:26;98471.00;;;11.30
16956;BMP180;8594;52.052;8.354;2024-03-29T02:18:53;98468.00;;;11.30
16956;BMP180;8594;52.052;8.354;2024-03-29T02:21:18;98465.00;;;11.30
16956;BMP180;8594;52.052;8.354;2024-03-29T02:26:17;98448.00;;;11.10
16956;BMP180;8594;52.052;8.354;2024-03-29T02:28:44;98442.00;;;11.40
16956;BMP180;8594;52.052;8.354;2024-03-29T02:31:11;98440.00;;;11.30
16956;BMP180;8594;52.052;8.354;2024-03-29T02:33:38;98437.00;;;11.40
16956;BMP180;8594;52.052;8.354;2024-03-29T02:36:05;98424.00;;;11.40
16956;BMP180;8594;52.052;8.354;2024-03-29T02:38:32;98424.00;;;11.30
16956;BMP180;8594;52.052;8.354;2024-03-29T02:40:58;98416.00;;;11.30
16956;BMP180;8594;52.052;8.354;2024-03-29T02:43:28;98431.00;;;11.00
16956;BMP180;8594;52.052;8.354;2024-03-29T02:45:54;98417.00;;;11.20
16956;BMP180;8594;52.052;8.354;2024-03-29T02:48:21;98424.00;;;11.70
16956;BMP180;8594;52.052;8.354;2024-03-29T02:50:48;98416.00;;;11.40
16956;BMP180;8594;52.052;8.354;2024-03-29T02:53:13;98423.00;;;11.30
16956;BMP180;8594;52.052;8.354;2024-03-29T02:55:41;98426.00;;;11.60
16956;BMP180;8594;52.052;8.354;2024-03-29T02:58:07;98432.00;;;11.70
16956;BMP180;8594;52.052;8.354;2024-03-29T03:00:35;98443.00;;;11.60
16956;BMP180;8594;52.052;8.354;2024-03-29T03:03:01;98435.00;;;11.60
16956;BMP180;8594;52.052;8.354;2024-03-29T03:05:29;98435.00;;;11.40
16956;BMP180;8594;52.052;8.354;2024-03-29T03:07:55;98431.00;;;11.70
16956;BMP180;8594;52.052;8.354;2024-03-29T03:10:45;98432.00;;;11.90
16956;BMP180;8594;52.052;8.354;2024-03-29T03:13:27;98434.00;;;11.90
16956;BMP180;8594;52.052;8.354;2024-03-29T03:15:56;98426.00;;;12.10
16956;BMP180;8594;52.052;8.354;2024-03-29T03:18:23;98437.00;;;11.70
16956;BMP180;8594;52.052;8.354;2024-03-29T03:20:52;98434.00;;;12.00
16956;BMP180;8594;52.052;8.354;2024-03-29T03:23:19;98437.00;;;12.00
16956;BMP180;8594;52.052;8.354;2024-03-29T03:25:46;98436.00;;;11.90
16956;BMP180;8594;52.052;8.354;2024-03-29T03:28:13;98434.00;;;11.60
16956;BMP180;8594;52.052;8.354;2024-03-29T03:30:40;98438.00;;;11.90
16956;BMP180;8594;52.052;8.354;2024-03-29T03:33:08;98430.00;;;11.90
16956;BMP180;8594;52.052;8.354;2024-03-29T03:35:34;98433.00;;;11.70
16956;BMP180;8594;52.052;8.354;2024-03-29T03:38:00;98428.00;;;11.70
16956;BMP180;8594;52.052;8.354;2024-03-29T03:40:26;98441.00;;;11.50
16956;BMP180;8594;52.052;8.354;2024-03-29T03:42:53;98443.00;;;11.60
16956;BMP180;8594;52.052;8.354;2024-03-29T03:45:19;98431.00;;;11.50
16956;BMP180;8594;52.052;8.354;2024-03-29T03:47:45;98422.00;;;11.60
16956;BMP180;8594;52.052;8.354;2024-03-29T03:50:13;98446.00;;;11.80
16956;BMP180;8594;52.052;8.354;2024-03-29T03:52:39;98451.00;;;11.60
16956;BMP180;8594;52.052;8.354;2024-03-29T03:55:06;98455.00;;;11.40
16956;BMP180;8594;52.052;8.354;2024-03-29T03:57:33;98453.00;;;11.80
16956;BMP180;8594;52.052;8.354;2024-03-29T03:59:59;98451.00;;;11.80
16956;BMP180;8594;52.052;8.354;2024-03-29T04:02:26;98454.00;;;11.90
16956;BMP180;8594;52.052;8.354;2024-03-29T04:04:52;98455.00;;;11.30
16956;BMP180;8594;52.052;8.354;2024-03-29T04:07:20;98442.00;;;11.60
16956;BMP180;8594;52.052;8.354;2024-03-29T04:09:46;98451.00;;;11.60
16956;BMP180;8594;52.052;8.354;2024-03-29T04:12:12;98460.00;;;11.30
16956;BMP180;8594;52.052;8.354;2024-03-29T04:14:38;98466.00;;;11.20
16956;BMP180;8594;52.052;8.354;2024-03-29T04:17:05;98449.00;;;11.40
16956;BMP180;8594;52.052;8.354;2024-03-29T04:19:31;98458.00;;;11.30
16956;BMP180;8594;52.052;8.354;2024-03-29T04:21:57;98466.00;;;11.70
16956;BMP180;8594;52.052;8.354;2024-03-29T04:24:24;98463.00;;;11.50
16956;BMP180;8594;52.052;8.354;2024-03-29T04:26:51;98483.00;;;11.10
16956;BMP180;8594;52.052;8.354;2024-03-29T04:29:17;98478.00;;;11.30
16956;BMP180;8594;52.052;8.354;2024-03-29T04:31:45;98472.00;;;11.40
16956;BMP180;8594;52.052;8.354;2024-03-29T04:34:10;98490.00;;;11.40
16956;BMP180;8594;52.052;8.354;2024-03-29T04:36:37;98487.00;;;11.60
16956;BMP180;8594;52.052;8.354;2024-03-29T04:39:05;98489.00;;;11.60
16956;BMP180;8594;52.052;8.354;2024-03-29T04:41:33;98493.00;;;11.30
16956;BMP180;8594;52.052;8.354;2024-03-29T04:44:00;98496.00;;;11.50
16956;BMP180;8594;52.052;8.354;2024-03-29T04:46:30;98497.00;;;11.60
16956;BMP180;8594;52.052;8.354;2024-03-29T04:48:58;98510.00;;;11.20
16956;BMP180;8594;52.052;8.354;2024-03-29T04:51:24;98508.00;;;11.80
16956;BMP180;8594;52.052;8.354;2024-03-29T04:53:51;98525.00;;;12.10
16956;BMP180;8594;52.052;8.354;2024-03-29T04:56:18;98511.00;;;11.70
16956;BMP180;8594;52.052;8.354;2024-03-29T04:58:46;98517.00;;;11.80
16956;BMP180;8594;52.052;8.354;2024-03-29T05:01:13;98524.00;;;12.10
16956;BMP180;8594;52.052;8.354;2024-03-29T05:03:39;98520.00;;;11.90
16956;BMP180;8594;52.052;8.354;2024-03-29T05:06:06;98517.00;;;11.90
16956;BMP180;8594;52.052;8.354;2024-03-29T05:08:33;98535.00;;;11.60
16956;BMP180;8594;52.052;8.354;2024-03-29T05:10:59;98537.00;;;11.90
16956;BMP180;8594;52.052;8.354;2024-03-29T05:13:26;98512.00;;;11.50
16956;BMP180;8594;52.052;8.354;2024-03-29T05:15:54;98504.00;;;11.70
16956;BMP180;8594;52.052;8.354;2024-03-29T05:18:21;98519.00;;;11.70
16956;BMP180;8594;52.052;8.354;2024-03-29T05:20:47;98515.00;;;11.90
16956;BMP180;8594;52.052;8.354;2024-03-29T05:23:16;98517.00;;;11.70
16956;BMP180;8594;52.052;8.354;2024-03-29T05:25:43;98511.00;;;11.90
16956;BMP180;8594;52.052;8.354;2024-03-29T05:28:10;98522.00;;;11.90
16956;BMP180;8594;52.052;8.354;2024-03-29T05:30:37;98534.00;;;12.20
16956;BMP180;8594;52.052;8.354;2024-03-29T05:33:05;98522.00;;;12.30
16956;BMP180;8594;52.052;8.354;2024-03-29T05:35:33;98529.00;;;12.50
16956;BMP180;8594;52.052;8.354;2024-03-29T05:38:00;98513.00;;;12.10
16956;BMP180;8594;52.052;8.354;2024-03-29T05:40:27;98510.00;;;12.20
16956;BMP180;8594;52.052;8.354;2024-03-29T05:42:54;98513.00;;;12.10
16956;BMP180;8594;52.052;8.354;2024-03-29T05:45:24;98507.00;;;12.20
16956;BMP180;8594;52.052;8.354;2024-03-29T05:47:53;98501.00;;;12.40
16956;BMP180;8594;52.052;8.354;2024-03-29T05:50:23;98508.00;;;12.10
16956;BMP180;8594;52.052;8.354;2024-03-29T05:52:50;98520.00;;;12.10
16956;BMP180;8594;52.052;8.354;2024-03-29T05:55:18;98513.00;;;12.10
16956;BMP180;8594;52.052;8.354;2024-03-29T05:57:44;98508.00;;;12.20
16956;BMP180;8594;52.052;8.354;2024-03-29T06:00:13;98505.00;;;12.20
16956;BMP180;8594;52.052;8.354;2024-03-29T06:02:41;98500.00;;;12.20
16956;BMP180;8594;52.052;8.354;2024-03-29T06:05:10;98496.00;;;12.10
16956;BMP180;8594;52.052;8.354;2024-03-29T06:07:38;98495.00;;;12.30
16956;BMP180;8594;52.052;8.354;2024-03-29T06:10:06;98493.00;;;12.30
16956;BMP180;8594;52.052;8.354;2024-03-29T06:12:34;98501.00;;;12.40
16956;BMP180;8594;52.052;8.354;2024-03-29T06:15:01;98504.00;;;12.30
16956;BMP180;8594;52.052;8.354;2024-03-29T06:17:46;98493.00;;;12.00
16956;BMP180;8594;52.052;8.354;2024-03-29T06:20:13;98486.00;;;12.20
16956;BMP180;8594;52.052;8.354;2024-03-29T06:22:41;98479.00;;;11.80
16956;BMP180;8594;52.052;8.354;2024-03-29T06:25:08;98472.00;;;11.80
16956;BMP180;8594;52.052;8.354;2024-03-29T06:27:36;98454.00;;;11.90
16956;BMP180;8594;52.052;8.354;2024-03-29T06:30:06;98451.00;;;11.90
16956;BMP180;8594;52.052;8.354;2024-03-29T06:32:33;98457.00;;;11.70
16956;BMP180;8594;52.052;8.354;2024-03-29T06:35:00;98445.00;;;11.30
16956;BMP180;8594;52.052;8.354;2024-03-29T06:37:28;98445.00;;;11.00
16956;BMP180;8594;52.052;8.354;2024-03-29T06:39:56;98437.00;;;11.10
16956;BMP180;8594;52.052;8.354;2024-03-29T06:42:23;98422.00;;;11.20
16956;BMP180;8594;52.052;8.354;2024-03-29T06:44:49;98423.00;;;10.80
16956;BMP180;8594;52.052;8.354;2024-03-29T06:47:17;98433.00;;;11.00
16956;BMP180;8594;52.052;8.354;2024-03-29T06:49:44;98431.00;;;11.10
16956;BMP180;8594;52.052;8.354;2024-03-29T06:52:11;98416.00;;;11.20
16956;BMP180;8594;52.052;8.354;2024-03-29T06:54:38;98432.00;;;10.60
16956;BMP180;8594;52.052;8.354;2024-03-29T06:57:06;98427.00;;;10.80
16956;BMP180;8594;52.052;8.354;2024-03-29T06:59:34;98426.00;;;10.90
16956;BMP180;8594;52.052;8.354;2024-03-29T07:02:01;98424.00;;;11.00
16956;BMP180;8594;52.052;8.354;2024-03-29T07:04:28;98406.00;;;10.90
16956;BMP180;8594;52.052;8.354;2024-03-29T07:06:55;98432.00;;;11.10
16956;BMP180;8594;52.052;8.354;2024-03-29T07:09:22;98419.00;;;11.20
16956;BMP180;8594;52.052;8.354;2024-03-29T07:11:51;98416.00;;;10.80
16956;BMP180;8594;52.052;8.354;2024-03-29T07:14:19;98411.00;;;11.10
16956;BMP180;8594;52.052;8.354;2024-03-29T07:16:47;98393.00;;;11.20
16956;BMP180;8594;52.052;8.354;2024-03-29T07:19:14;98410.00;;;11.10
16956;BMP180;8594;52.052;8.354;2024-03-29T07:21:42;98401.00;;;11.00
16956;BMP180;8594;52.052;8.354;2024-03-29T07:24:09;98404.00;;;10.90
16956;BMP180;8594;52.052;8.354;2024-03-29T07:26:36;98398.00;;;10.90
16956;BMP180;8594;52.052;8.354;2024-03-29T07:29:03;98398.00;;;10.80
16956;BMP180;8594;52.052;8.354;2024-03-29T07:31:32;98402.00;;;11.30
16956;BMP180;8594;52.052;8.354;2024-03-29T07:33:59;98393.00;;;11.20
16956;BMP180;8594;52.052;8.354;2024-03-29T07:36:26;98388.00;;;11.40
16956;BMP180;8594;52.052;8.354;2024-03-29T07:38:59;98384.00;;;11.50
16956;BMP180;8594;52.052;8.354;2024-03-29T07:41:26;98388.00;;;11.40
16956;BMP180;8594;52.052;8.354;2024-03-29T07:43:54;98389.00;;;11.60
16956;BMP180;8594;52.052;8.354;2024-03-29T07:46:28;98387.00;;;11.30
16956;BMP180;8594;52.052;8.354;2024-03-29T07:48:57;98395.00;;;11.40
16956;BMP180;8594;52.052;8.354;2024-03-29T07:51:24;98403.00;;;11.50
16956;BMP180;8594;52.052;8.354;2024-03-29T07:53:51;98405.00;;;11.60
16956;BMP180;8594;52.052;8.354;2024-03-29T07:56:18;98404.00;;;11.80
16956;BMP180;8594;52.052;8.354;2024-03-29T07:58:50;98395.00;;;11.50
16956;BMP180;8594;52.052;8.354;2024-03-29T08:01:19;98386.00;;;11.80
16956;BMP180;8594;52.052;8.354;2024-03-29T08:03:46;98393.00;;;11.70
16956;BMP180;8594;52.052;8.354;2024-03-29T08:06:14;98400.00;;;12.00
16956;BMP180;8594;52.052;8.354;2024-03-29T08:08:42;98389.00;;;11.70
16956;BMP180;8594;52.052;8.354;2024-03-29T08:11:09;98388.00;;;11.70
16956;BMP180;8594;52.052;8.354;2024-03-29T08:13:38;98387.00;;;12.00
16956;BMP180;8594;52.052;8.354;2024-03-29T08:16:05;98410.00;;;11.80
16956;BMP180;8594;52.052;8.354;2024-03-29T08:18:32;98424.00;;;11.90
16956;BMP180;8594;52.052;8.354;2024-03-29T08:21:00;98429.00;;;11.90
16956;BMP180;8594;52.052;8.354;2024-03-29T08:23:28;98442.00;;;12.00
16956;BMP180;8594;52.052;8.354;2024-03-29T08:25:56;98448.00;;;12.10
16956;BMP180;8594;52.052;8.354;2024-03-29T08:28:23;98434.00;;;12.20
16956;BMP180;8594;52.052;8.354;2024-03-29T08:30:59;98438.00;;;12.40
16956;BMP180;8594;52.052;8.354;2024-03-29T08:33:26;98434.00;;;12.50
16956;BMP180;8594;52.052;8.354;2024-03-29T08:35:53;98448.00;;;12.60
16956;BMP180;8594;52.052;8.354;2024-03-29T08:38:20;98443.00;;;12.40
16956;BMP180;8594;52.052;8.354;2024-03-29T08:40:49;98442.00;;;12.40
16956;BMP180;8594;52.052;8.354;2024-03-29T08:43:16;98434.00;;;12.50
16956;BMP180;8594;52.052;8.354;2024-03-29T08:45:43;98439.00;;;12.70
16956;BMP180;8594;52.052;8.354;2024-03-29T08:48:10;98437.00;;;12.40
16956;BMP180;8594;52.052;8.354;2024-03-29T08:50:37;98432.00;;;12.80
16956;BMP180;8594;52.052;8.354;2024-03-29T08:53:05;98443.00;;;12.80
16956;BMP180;8594;52.052;8.354;2024-03-29T08:55:33;98439.00;;;12.70
16956;BMP180;8594;52.052;8.354;2024-03-29T08:58:03;98439.00;;;12.80
16956;BMP180;8594;52.052;8.354;2024-03-29T09:00:31;98431.00;;;12.70
16956;BMP180;8594;52.052;8.354;2024-03-29T09:02:57;98426.00;;;12.80
16956;BMP180;8594;52.052;8.354;2024-03-29T09:05:25;98424.00;;;12.70
16956;BMP180;8594;52.052;8.354;2024-03-29T09:07:53;98432.00;;;12.90
16956;BMP180;8594;52.052;8.354;2024-03-29T09:10:21;98437.00;;;13.00
16956;BMP180;8594;52.052;8.354;2024-03-29T09:12:48;98442.00;;;12.80
16956;BMP180;8594;52.052;8.354;2024-03-29T09:15:16;98441.00;;;12.90
16956;BMP180;8594;52.052;8.354;2024-03-29T09:17:43;98442.00;;;13.20
16956;BMP180;8594;52.052;8.354;2024-03-29T09:20:11;98449.00;;;13.30
16956;BMP180;8594;52.052;8.354;2024-03-29T09:22:37;98440.00;;;13.50
16956;BMP180;8594;52.052;8.354;2024-03-29T09:25:05;98445.00;;;13.20
16956;BMP180;8594;52.052;8.354;2024-03-29T09:27:34;98446.00;;;13.40
16956;BMP180;8594;52.052;8.354;2024-03-29T09:30:02;98447.00;;;13.30
16956;BMP180;8594;52.052;8.354;2024-03-29T09:32:32;98446.00;;;13.60
16956;BMP180;8594;52.052;8.354;2024-03-29T09:34:59;98449.00;;;13.60
16956;BMP180;8594;52.052;8.354;2024-03-29T09:37:26;98452.00;;;13.50
16956;BMP180;8594;52.052;8.354;2024-03-29T09:39:53;98461.00;;;13.90
16956;BMP180;8594;52.052;8.354;2024-03-29T09:42:22;98464.00;;;13.90
16956;BMP180;8594;52.052;8.354;2024-03-29T09:44:51;98476.00;;;14.00
16956;BMP180;8594;52.052;8.354;2024-03-29T09:47:19;98463.00;;;14.10
16956;BMP180;8594;52.052;8.354;2024-03-29T09:49:48;98455.00;;;14.00
16956;BMP180;8594;52.052;8.354;2024-03-29T09:52:17;98460.00;;;14.20
16956;BMP180;8594;52.052;8.354;2024-03-29T09:54:45;98462.00;;;14.30
16956;BMP180;8594;52.052;8.354;2024-03-29T09:57:12;98465.00;;;14.40
16956;BMP180;8594;52.052;8.354;2024-03-29T09:59:39;98456.00;;;14.40
16956;BMP180;8594;52.052;8.354;2024-03-29T10:02:15;98472.00;;;14.40
16956;BMP180;8594;52.052;8.354;2024-03-29T10:04:43;98465.00;;;14.60
16956;BMP180;8594;52.052;8.354;2024-03-29T10:07:14;98458.00;;;14.80
16956;BMP180;8594;52.052;8.354;2024-03-29T10:09:42;98468.00;;;14.80
16956;BMP180;8594;52.052;8.354;2024-03-29T10:12:09;98456.00;;;14.80
16956;BMP180;8594;52.052;8.354;2024-03-29T10:14:44;98451.00;;;14.80
16956;BMP180;8594;52.052;8.354;2024-03-29T10:17:16;98456.00;;;14.80
16956;BMP180;8594;52.052;8.354;2024-03-29T10:19:43;98477.00;;;14.70
16956;BMP180;8594;52.052;8.354;2024-03-29T10:22:10;98459.00;;;14.80
16956;BMP180;8594;52.052;8.354;2024-03-29T10:24:38;98458.00;;;14.80
16956;BMP180;8594;52.052;8.354;2024-03-29T10:27:05;98472.00;;;14.90
16956;BMP180;8594;52.052;8.354;2024-03-29T10:29:32;98469.00;;;14.70
16956;BMP180;8594;52.052;8.354;2024-03-29T10:32:01;98477.00;;;15.10
16956;BMP180;8594;52.052;8.354;2024-03-29T10:34:29;98477.00;;;14.90
16956;BMP180;8594;52.052;8.354;2024-03-29T10:37:01;98477.00;;;15.00
16956;BMP180;8594;52.052;8.354;2024-03-29T10:39:29;98471.00;;;15.10
16956;BMP180;8594;52.052;8.354;2024-03-29T10:41:59;98465.00;;;14.80
16956;BMP180;8594;52.052;8.354;2024-03-29T10:44:28;98474.00;;;14.90
16956;BMP180;8594;52.052;8.354;2024-03-29T10:46:56;98474.00;;;15.10
16956;BMP180;8594;52.052;8.354;2024-03-29T10:49:24;98477.00;;;15.30
16956;BMP180;8594;52.052;8.354;2024-03-29T10:51:53;98470.00;;;15.20
16956;BMP180;8594;52.052;8.354;2024-03-29T10:54:22;98473.00;;;15.20
16956;BMP180;8594;52.052;8.354;2024-03-29T10:56:59;98485.00;;;15.30
16956;BMP180;8594;52.052;8.354;2024-03-29T10:59:38;98497.00;;;15.40
16956;BMP180;8594;52.052;8.354;2024-03-29T11:02:12;98507.00;;;15.40
16956;BMP180;8594;52.052;8.354;2024-03-29T11:04:40;98501.00;;;15.30
16956;BMP180;8594;52.052;8.354;2024-03-29T11:07:19;98513.00;;;15.50
16956;BMP180;8594;52.052;8.354;2024-03-29T11:09:52;98504.00;;;15.50
16956;BMP180;8594;52.052;8.354;2024-03-29T11:12:24;98501.00;;;15.80
16956;BMP180;8594;52.052;8.354;2024-03-29T11:15:02;98502.00;;;15.80
16956;BMP180;8594;52.052;8.354;2024-03-29T11:17:30;98492.00;;;16.00
16956;BMP180;8594;52.052;8.354;2024-03-29T11:19:59;98490.00;;;16.00
16956;BMP180;8594;52.052;8.354;2024-03-29T11:22:28;98491.00;;;16.00
16956;BMP180;8594;52.052;8.354;2024-03-29T11:24:55;98485.00;;;16.10
16956;BMP180;8594;52.052;8.354;2024-03-29T11:27:23;98477.00;;;16.00
16956;BMP180;8594;52.052;8.354;2024-03-29T11:29:52;98475.00;;;16.30
16956;BMP180;8594;52.052;8.354;2024-03-29T11:32:34;98492.00;;;16.00
16956;BMP180;8594;52.052;8.354;2024-03-29T11:35:01;98477.00;;;15.80
16956;BMP180;8594;52.052;8.354;2024-03-29T11:37:30;98476.00;;;16.30
16956;BMP180;8594;52.052;8.354;2024-03-29T11:39:59;98486.00;;;16.40
16956;BMP180;8594;52.052;8.354;2024-03-29T11:42:43;98484.00;;;16.20
16956;BMP180;8594;52.052;8.354;2024-03-29T11:45:10;98485.00;;;16.50
16956;BMP180;8594;52.052;8.354;2024-03-29T11:47:40;98487.00;;;16.10
16956;BMP180;8594;52.052;8.354;2024-03-29T11:50:08;98486.00;;;16.40
16956;BMP180;8594;52.052;8.354;2024-03-29T11:52:38;98476.00;;;16.30
16956;BMP180;8594;52.052;8.354;2024-03-29T11:55:05;98471.00;;;16.40
16956;BMP180;8594;52.052;8.354;2024-03-29T11:57:33;98484.00;;;16.80
16956;BMP180;8594;52.052;8.354;2024-03-29T12:00:01;98508.00;;;16.60
16956;BMP180;8594;52.052;8.354;2024-03-29T12:02:28;98512.00;;;16.50
16956;BMP180;8594;52.052;8.354;2024-03-29T12:04:55;98521.00;;;16.40
16956;BMP180;8594;52.052;8.354;2024-03-29T12:07:22;98519.00;;;16.80
16956;BMP180;8594;52.052;8.354;2024-03-29T12:09:48;98514.00;;;16.40
16956;BMP180;8594;52.052;8.354;2024-03-29T12:12:15;98520.00;;;16.40
16956;BMP180;8594;52.052;8.354;2024-03-29T12:14:43;98516.00;;;16.70
16956;BMP180;8594;52.052;8.354;2024-03-29T12:17:11;98509.00;;;16.50
16956;BMP180;8594;52.052;8.354;2024-03-29T12:19:38;98494.00;;;16.50
16956;BMP180;8594;52.052;8.354;2024-03-29T12:22:07;98492.00;;;16.70
16956;BMP180;8594;52.052;8.354;2024-03-29T12:24:35;98499.00;;;16.80
16956;BMP180;8594;52.052;8.354;2024-03-29T12:27:02;98496.00;;;17.00
16956;BMP180;8594;52.052;8.354;2024-03-29T12:29:28;98499.00;;;16.70
16956;BMP180;8594;52.052;8.354;2024-03-29T12:31:59;98512.00;;;16.80
16956;BMP180;8594;52.052;8.354;2024-03-29T12:34:27;98515.00;;;17.10
16956;BMP180;8594;52.052;8.354;2024-03-29T12:36:57;98531.00;;;16.90
16956;BMP180;8594;52.052;8.354;2024-03-29T12:39:24;98557.00;;;17.60
16956;BMP180;8594;52.052;8.354;2024-03-29T12:41:52;98560.00;;;17.70
16956;BMP180;8594;52.052;8.354;2024-03-29T12:44:24;98559.00;;;17.20
16956;BMP180;8594;52.052;8.354;2024-03-29T12:46:51;98553.00;;;17.70
16956;BMP180;8594;52.052;8.354;2024-03-29T12:49:18;98563.00;;;17.80
16956;BMP180;8594;52.052;8.354;2024-03-29T12:51:46;98549.00;;;17.50
16956;BMP180;8594;52.052;8.354;2024-03-29T12:54:13;98572.00;;;17.90
16956;BMP180;8594;52.052;8.354;2024-03-29T12:56:40;98587.00;;;17.70
16956;BMP180;8594;52.052;8.354;2024-03-29T12:59:07;98577.00;;;17.40
16956;BMP180;8594;52.052;8.354;2024-03-29T13:01:34;98563.00;;;17.30
16956;BMP180;8594;52.052;8.354;2024-03-29T13:04:01;98567.00;;;17.40
16956;BMP180;8594;52.052;8.354;2024-03-29T13:06:29;98570.00;;;17.70
16956;BMP180;8594;52.052;8.354;2024-03-29T13:08:57;98577.00;;;18.10
16956;BMP180;8594;52.052;8.354;2024-03-29T13:11:24;98577.00;;;18.20
16956;BMP180;8594;52.052;8.354;2024-03-29T13:13:51;98569.00;;;18.40
16956;BMP180;8594;52.052;8.354;2024-03-29T13:16:17;98553.00;;;18.50
16956;BMP180;8594;52.052;8.354;2024-03-29T13:18:44;98554.00;;;18.10
16956;BMP180;8594;52.052;8.354;2024-03-29T13:21:11;98542.00;;;18.20
16956;BMP180;8594;52.052;8.354;2024-03-29T13:23:38;98550.00;;;17.90
16956;BMP180;8594;52.052;8.354;2024-03-29T13:26:06;98543.00;;;18.30
16956;BMP180;8594;52.052;8.354;2024-03-29T13:28:32;98561.00;;;17.70
16956;BMP180;8594;52.052;8.354;2024-03-29T13:30:59;98554.00;;;17.30
16956;BMP180;8594;52.052;8.354;2024-03-29T13:33:26;98560.00;;;18.20
16956;BMP180;8594;52.052;8.354;2024-03-29T13:35:53;98557.00;;;18.10
16956;BMP180;8594;52.052;8.354;2024-03-29T13:38:22;98547.00;;;18.00
16956;BMP180;8594;52.052;8.354;2024-03-29T13:40:52;98554.00;;;17.80
16956;BMP180;8594;52.052;8.354;2024-03-29T13:43:20;98554.00;;;18.00
16956;BMP180;8594;52.052;8.354;2024-03-29T13:45:48;98558.00;;;18.00
16956;BMP180;8594;52.052;8.354;2024-03-29T13:48:16;98559.00;;;18.20
16956;BMP180;8594;52.052;8.354;2024-03-29T13:50:43;98560.00;;;18.50
16956;BMP180;8594;52.052;8.354;2024-03-29T13:53:10;98567.00;;;18.10
16956;BMP180;8594;52.052;8.354;2024-03-29T13:55:36;98585.00;;;17.80
16956;BMP180;8594;52.052;8.354;2024-03-29T13:58:04;98591.00;;;17.50
16956;BMP180;8594;52.052;8.354;2024-03-29T14:00:32;98607.00;;;17.30
16956;BMP180;8594;52.052;8.354;2024-03-29T14:02:58;98612.00;;;17.00
16956;BMP180;8594;52.052;8.354;2024-03-29T14:05:25;98600.00;;;16.60
16956;BMP180;8594;52.052;8.354;2024-03-29T14:07:52;98614.00;;;17.30
16956;BMP180;8594;52.052;8.354;2024-03-29T14:10:19;98602.00;;;17.20
16956;BMP180;8594;52.052;8.354;2024-03-29T14:12:45;98605.00;;;17.00
16956;BMP180;8594;52.052;8.354;2024-03-29T14:15:13;98604.00;;;16.90
16956;BMP180;8594;52.052;8.354;2024-03-29T14:17:41;98605.00;;;16.80
16956;BMP180;8594;52.052;8.354;2024-03-29T14:20:10;98607.00;;;17.20
16956;BMP180;8594;52.052;8.354;2024-03-29T14:22:36;98610.00;;;17.30
16956;BMP180;8594;52.052;8.354;2024-03-29T14:25:05;98603.00;;;17.40
16956;BMP180;8594;52.052;8.354;2024-03-29T14:27:36;98604.00;;;17.70